Waynedale, Indiana
Current Conditions -  °F | °C
As of 1:54 PM on Friday 21 Nov 2014 (Local Time) from KFWA Reporting Station
Clear Clear  
Wind Chill: 20°   Ceiling: Unl
Heat Index: 27°   Visibility: 10mi
Dew Point: 13°   Wind: 6mph
Humidity: 56%   Direction: 150°SSE
Pressure: 30.47"   Gusts: NA
Location:  40.9649°N, 85.1332°W
Report Text: KFWA 211854Z 15005KT 10SM CLR M03/M11 A3047 RMK AO2 SLP331 T10281106
Loading
Personal Weather Stations






























Interactive Weather Map New forecast layout! Learn more

10-Day Weather Forecast

Advertisements
Track Severe Weather on mobile